Time;durP1;ratioP1;P1;durP2;ratioP2;P2;SDS_P1;SDS_P2;PMS_P1;PMS_P2;Temp;Humidity;BMP_temperature;BMP_pressure;BME280_temperature;BME280_humidity;BME280_pressure;Samples;Min_cycle;Max_cycle;Signal;HPM_P1;HPM_P2
2022/01/17 00:00:14;;;;;;;0.50;0.50;;;5.90;99.90;;;;;;5137274;27;20452;-83
2022/01/17 00:02:40;;;;;;;0.50;0.50;;;5.90;99.90;;;;;;5102696;27;20050;-81
2022/01/17 00:05:07;;;;;;;0.50;0.50;;;5.90;99.90;;;;;;5137487;27;20043;-82
2022/01/17 00:07:34;;;;;;;5.05;0.80;;;5.90;99.90;;;;;;5102481;27;20050;-81
2022/01/17 00:09:59;;;;;;;0.50;0.50;;;6.00;99.90;;;;;;5118832;27;20043;-82
2022/01/17 00:12:27;;;;;;;0.60;0.60;;;5.90;99.90;;;;;;5118801;27;20088;-80
2022/01/17 00:14:55;;;;;;;;;;;5.90;99.90;;;;;;5118782;27;20039;-82
2022/01/17 00:19:47;;;;;;;0.50;0.50;;;5.80;99.90;;;;;;5137097;27;20086;-80
2022/01/17 00:22:15;;;;;;;0.50;0.50;;;5.80;99.90;;;;;;5136274;27;20111;-80
2022/01/17 00:24:41;;;;;;;0.50;0.50;;;5.80;99.90;;;;;;5136696;27;20043;-81
2022/01/17 00:27:07;;;;;;;0.50;0.50;;;5.80;99.90;;;;;;5136582;27;20127;-82
2022/01/17 00:29:34;;;;;;;0.50;0.50;;;5.70;99.90;;;;;;5136100;27;20043;-80
2022/01/17 00:32:01;;;;;;;0.60;0.60;;;5.70;99.90;;;;;;5102215;27;20047;-82
2022/01/17 00:34:27;;;;;;;0.50;0.50;;;5.70;99.90;;;;;;5101475;27;20383;-80
2022/01/17 00:36:53;;;;;;;0.50;0.50;;;5.70;99.90;;;;;;5101697;27;20051;-82
2022/01/17 00:39:19;;;;;;;0.50;0.50;;;5.60;99.90;;;;;;5118287;27;20490;-80
2022/01/17 00:41:45;;;;;;;0.50;0.50;;;6.30;99.90;;;;;;5100949;27;20100;-81
2022/01/17 00:44:11;;;;;;;0.50;0.50;;;5.60;99.90;;;;;;5117995;27;20064;-81
2022/01/17 00:46:36;;;;;;;0.50;0.50;;;5.70;99.90;;;;;;5118300;27;20051;-80
2022/01/17 00:49:03;;;;;;;0.50;0.50;;;5.60;99.90;;;;;;5117981;27;20487;-82
2022/01/17 00:51:29;;;;;;;0.50;0.50;;;5.60;99.90;;;;;;5136409;27;20088;-81
2022/01/17 00:53:55;;;;;;;0.50;0.50;;;5.60;99.90;;;;;;5117902;27;20043;-81
2022/01/17 00:56:22;;;;;;;0.90;0.90;;;5.60;99.90;;;;;;5101136;27;20039;-83
2022/01/17 00:58:48;;;;;;;0.63;0.63;;;5.90;99.90;;;;;;5118007;27;20043;-81
2022/01/17 01:01:14;;;;;;;0.50;0.50;;;5.60;99.90;;;;;;5136087;27;20483;-81
2022/01/17 01:03:40;;;;;;;0.50;0.50;;;5.60;99.90;;;;;;5117741;27;20054;-80
2022/01/17 01:06:06;;;;;;;0.50;0.50;;;5.60;99.90;;;;;;5118004;27;20043;-80
2022/01/17 01:08:31;;;;;;;0.60;0.60;;;5.50;99.90;;;;;;5101135;27;20074;-83
2022/01/17 01:10:57;;;;;;;0.50;0.50;;;5.60;99.90;;;;;;5117678;27;20479;-80
2022/01/17 01:13:24;;;;;;;0.50;0.50;;;5.50;99.90;;;;;;5083742;27;20136;-81
2022/01/17 01:21:20;;;;;;;1.38;1.30;;;5.60;99.90;;;;;;5118435;27;20483;-80
2022/01/17 01:29:14;;;;;;;0.50;0.50;;;5.50;99.90;;;;;;5135402;27;20500;-81
2022/01/17 01:31:56;;;;;;;0.50;0.50;;;5.40;99.90;;;;;;5135651;27;20039;-81
2022/01/17 01:34:32;;;;;;;0.50;0.50;;;5.40;99.90;;;;;;5135394;27;20043;-80
2022/01/17 01:36:58;;;;;;;0.50;0.50;;;5.50;99.90;;;;;;5135681;27;20372;-82
2022/01/17 01:39:24;;;;;;;0.60;0.60;;;5.50;99.90;;;;;;5135424;27;20053;-80
2022/01/17 01:41:51;;;;;;;0.50;0.50;;;5.50;99.90;;;;;;5135365;27;20078;-81
2022/01/17 01:44:19;;;;;;;1.58;1.48;;;5.50;99.90;;;;;;5117285;27;20096;-81
2022/01/17 01:46:46;;;;;;;0.93;0.93;;;5.40;99.90;;;;;;5135066;27;20347;-82
2022/01/17 01:49:12;;;;;;;0.50;0.50;;;5.40;99.90;;;;;;5116806;27;20043;-80
2022/01/17 01:51:38;;;;;;;5.00;3.00;;;5.40;99.90;;;;;;5117116;27;20082;-82
2022/01/17 01:54:04;;;;;;;0.50;0.50;;;5.40;99.90;;;;;;5116711;27;20128;-80
2022/01/17 01:56:30;;;;;;;0.50;0.50;;;5.40;99.90;;;;;;5116960;27;20046;-81
2022/01/17 01:58:56;;;;;;;6.60;1.23;;;5.30;99.90;;;;;;5134350;27;20134;-80
2022/01/17 02:01:22;;;;;;;0.50;0.50;;;5.30;99.90;;;;;;5134917;27;20130;-82
2022/01/17 02:03:47;;;;;;;0.50;0.50;;;5.40;99.90;;;;;;5135016;27;20115;-81
2022/01/17 02:06:13;;;;;;;0.50;0.50;;;;;;;;;;5117212;27;20039;-80
2022/01/17 02:08:39;;;;;;;0.50;0.50;;;5.30;99.90;;;;;;5116682;27;20100;-83
2022/01/17 02:11:07;;;;;;;0.50;0.50;;;5.30;99.90;;;;;;5082723;28;20050;-80
2022/01/17 02:13:32;;;;;;;0.50;0.50;;;5.30;99.90;;;;;;5116548;28;20042;-81
2022/01/17 02:16:03;;;;;;;0.60;0.60;;;5.30;99.90;;;;;;5134826;28;20448;-82
2022/01/17 02:18:31;;;;;;;0.80;0.80;;;5.30;99.90;;;;;;5117043;28;20134;-81
2022/01/17 02:23:43;;;;;;;0.50;0.50;;;5.20;99.90;;;;;;5135042;28;20047;-81
2022/01/17 02:26:10;;;;;;;0.50;0.50;;;5.20;99.90;;;;;;5116394;28;20487;-82
2022/01/17 02:28:37;;;;;;;0.50;0.50;;;5.20;99.90;;;;;;5099565;28;20134;-80
2022/01/17 02:31:04;;;;;;;;;;;5.20;99.90;;;;;;5135528;28;20136;-82
2022/01/17 02:33:31;;;;;;;0.50;0.50;;;5.20;99.90;;;;;;5135114;28;20030;-82
2022/01/17 02:35:57;;;;;;;0.50;0.50;;;5.10;99.90;;;;;;5099857;28;20104;-82
2022/01/17 02:38:22;;;;;;;0.52;0.52;;;5.10;99.90;;;;;;5116457;28;20043;-82
2022/01/17 02:40:52;;;;;;;0.50;0.50;;;5.10;99.90;;;;;;5134725;28;20043;-82
2022/01/17 02:43:20;;;;;;;0.50;0.50;;;5.10;99.90;;;;;;5134630;28;20043;-81
2022/01/17 02:48:30;;;;;;;0.50;0.50;;;5.00;99.90;;;;;;5112874;28;20050;-79
2022/01/17 02:50:57;;;;;;;0.55;0.55;;;4.70;99.90;;;;;;5113298;28;20035;-80
2022/01/17 02:53:24;;;;;;;0.60;0.60;;;5.40;99.90;;;;;;5112917;28;20377;-80
2022/01/17 02:55:53;;;;;;;0.50;0.50;;;5.00;99.90;;;;;;5113827;28;20567;-80
2022/01/17 02:58:20;;;;;;;0.50;0.50;;;4.40;99.90;;;;;;5096074;28;20050;-81
2022/01/17 03:00:47;;;;;;;0.50;0.50;;;4.40;99.90;;;;;;5096059;28;20131;-82
2022/01/17 03:03:16;;;;;;;0.60;0.60;;;4.80;99.90;;;;;;5095722;28;20559;-81
2022/01/17 03:05:42;;;;;;;0.50;0.50;;;4.70;99.90;;;;;;5113237;28;20047;-81
2022/01/17 03:08:08;;;;;;;0.60;0.60;;;4.70;99.90;;;;;;5113012;28;20134;-82
2022/01/17 03:10:39;;;;;;;0.60;0.60;;;4.80;99.90;;;;;;5116412;28;20514;-80
2022/01/17 03:13:07;;;;;;;0.50;0.50;;;4.50;99.90;;;;;;5118387;28;20043;-81
2022/01/17 03:15:33;;;;;;;0.60;0.60;;;4.60;99.90;;;;;;5116873;28;20101;-80
2022/01/17 03:18:00;;;;;;;0.60;0.60;;;4.60;99.90;;;;;;5099826;28;20069;-80
2022/01/17 03:20:26;;;;;;;3.30;1.48;;;4.60;99.90;;;;;;5116514;28;20039;-80
2022/01/17 03:22:51;;;;;;;24.48;2.80;;;4.40;99.90;;;;;;5116227;28;20093;-81
2022/01/17 03:25:17;;;;;;;0.50;0.50;;;;;;;;;;5099788;28;20095;-81
2022/01/17 03:27:43;;;;;;;0.50;0.50;;;4.50;99.90;;;;;;5117357;28;20097;-79
2022/01/17 03:30:09;;;;;;;0.50;0.50;;;4.70;99.90;;;;;;5117347;28;20074;-83
2022/01/17 03:32:35;;;;;;;0.60;0.60;;;4.50;99.90;;;;;;5082852;28;20096;-78
2022/01/17 03:35:01;;;;;;;0.50;0.50;;;4.50;99.90;;;;;;5098936;28;20040;-81
2022/01/17 03:37:27;;;;;;;0.50;0.50;;;4.50;99.90;;;;;;5117071;28;20040;-82
2022/01/17 03:39:53;;;;;;;0.60;0.60;;;4.60;99.90;;;;;;5117477;28;20052;-82
2022/01/17 03:42:19;;;;;;;0.60;0.60;;;4.10;99.90;;;;;;5117301;28;20518;-79
2022/01/17 03:44:46;;;;;;;0.60;0.60;;;4.50;99.90;;;;;;5116182;28;20433;-79
2022/01/17 03:47:12;;;;;;;0.55;0.55;;;4.00;99.90;;;;;;5118962;27;20086;-78
2022/01/17 03:49:38;;;;;;;0.60;0.60;;;4.70;99.90;;;;;;5137820;27;20078;-80
2022/01/17 03:52:04;;;;;;;0.60;0.60;;;4.50;99.90;;;;;;5137662;27;20470;-79
2022/01/17 03:54:31;;;;;;;0.60;0.60;;;4.50;99.90;;;;;;5137405;27;20048;-78
2022/01/17 03:57:00;;;;;;;0.52;0.52;;;4.60;99.90;;;;;;5102413;27;20121;-81
2022/01/17 03:59:26;;;;;;;0.50;0.50;;;4.60;99.90;;;;;;5118772;27;20084;-79
2022/01/17 04:01:52;;;;;;;0.60;0.60;;;4.90;99.90;;;;;;5118919;27;20043;-81
2022/01/17 04:04:17;;;;;;;0.50;0.50;;;4.60;99.90;;;;;;5137021;27;20065;-80
2022/01/17 04:06:43;;;;;;;0.50;0.50;;;4.60;99.90;;;;;;5102230;27;20130;-80
2022/01/17 04:09:10;;;;;;;0.60;0.60;;;4.90;99.90;;;;;;5137229;27;20454;-82
2022/01/17 04:11:36;;;;;;;0.60;0.60;;;4.70;99.90;;;;;;5119052;27;20398;-81
2022/01/17 04:14:02;;;;;;;0.63;0.63;;;4.70;99.90;;;;;;5101743;27;20039;-80
2022/01/17 04:16:28;;;;;;;0.60;0.60;;;4.80;99.90;;;;;;5101964;27;20065;-80
2022/01/17 04:18:55;;;;;;;0.60;0.60;;;4.80;99.90;;;;;;5101947;27;20039;-82
2022/01/17 04:21:20;;;;;;;0.57;0.57;;;4.80;99.90;;;;;;5101055;27;20050;-80
2022/01/17 04:23:46;;;;;;;0.60;0.60;;;4.80;99.90;;;;;;5137062;27;20039;-79
2022/01/17 04:26:11;;;;;;;0.50;0.50;;;4.80;99.90;;;;;;5119453;27;20103;-81
2022/01/17 04:28:37;;;;;;;0.77;0.77;;;4.80;99.90;;;;;;5118653;27;20047;-81
2022/01/17 04:31:03;;;;;;;0.60;0.60;;;5.30;99.90;;;;;;5118818;27;20049;-80
2022/01/17 04:33:28;;;;;;;0.60;0.60;;;4.80;99.90;;;;;;5118277;27;20121;-81
2022/01/17 04:35:54;;;;;;;0.60;0.60;;;4.80;99.90;;;;;;5136923;27;20479;-80
2022/01/17 04:38:20;;;;;;;7.18;2.05;;;4.70;99.90;;;;;;5118284;27;20497;-78
2022/01/17 04:40:48;;;;;;;0.55;0.55;;;4.80;99.90;;;;;;5101654;27;20084;-80
2022/01/17 04:43:32;;;;;;;0.68;0.68;;;4.80;99.90;;;;;;5136365;27;20047;-79
2022/01/17 04:45:57;;;;;;;0.50;0.50;;;4.70;99.90;;;;;;5120712;27;20035;-81
2022/01/17 04:48:24;;;;;;;0.60;0.60;;;4.70;99.90;;;;;;5136316;27;20066;-80
2022/01/17 04:50:50;;;;;;;4.85;3.70;;;4.60;99.90;;;;;;5136236;27;20046;-79
2022/01/17 04:53:17;;;;;;;15.48;7.90;;;4.50;99.90;;;;;;5118368;27;20035;-79
2022/01/17 04:55:42;;;;;;;;;;;4.50;99.90;;;;;;5101462;27;20054;-80
2022/01/17 04:58:08;;;;;;;0.50;0.50;;;4.50;99.90;;;;;;5136138;27;19919;-79
2022/01/17 05:00:33;;;;;;;0.60;0.60;;;4.50;99.90;;;;;;5136119;27;20047;-80
2022/01/17 05:02:59;;;;;;;0.60;0.60;;;4.70;99.90;;;;;;5135986;27;20383;-80
2022/01/17 05:05:25;;;;;;;0.60;0.60;;;4.40;99.90;;;;;;5117644;27;20035;-81
2022/01/17 05:07:50;;;;;;;0.55;0.55;;;4.50;99.90;;;;;;5135925;27;20039;-81
2022/01/17 05:10:17;;;;;;;0.60;0.60;;;4.50;99.90;;;;;;5118082;27;20061;-81
2022/01/17 05:12:44;;;;;;;81.03;7.60;;;4.50;99.90;;;;;;5136379;27;20387;-80
2022/01/17 05:20:35;;;;;;;0.50;0.50;;;4.60;99.90;;;;;;5117766;27;20551;-80
2022/01/17 05:23:01;;;;;;;0.65;0.65;;;4.60;99.90;;;;;;5117711;27;20043;-81
2022/01/17 05:25:26;;;;;;;0.60;0.60;;;4.70;99.90;;;;;;5100601;27;20331;-80
2022/01/17 05:27:52;;;;;;;0.60;0.60;;;4.70;99.90;;;;;;5135649;27;20039;-81
2022/01/17 05:30:20;;;;;;;0.50;0.50;;;4.70;99.90;;;;;;5135643;27;20046;-82
2022/01/17 05:32:46;;;;;;;0.50;0.50;;;4.80;99.90;;;;;;5117041;27;20055;-81
2022/01/17 05:35:13;;;;;;;0.50;0.50;;;4.90;99.90;;;;;;5116988;27;20031;-82
2022/01/17 05:37:39;;;;;;;0.50;0.50;;;4.80;99.90;;;;;;5117039;27;20043;-80
2022/01/17 05:40:07;;;;;;;0.57;0.57;;;4.90;99.90;;;;;;5135196;27;20050;-80
2022/01/17 05:42:32;;;;;;;0.50;0.50;;;4.90;99.90;;;;;;5116818;27;20554;-80
2022/01/17 05:44:58;;;;;;;0.60;0.60;;;4.90;99.90;;;;;;5117112;27;20134;-80
2022/01/17 05:47:24;;;;;;;0.98;0.98;;;5.00;99.90;;;;;;5117147;27;20098;-80
2022/01/17 05:49:49;;;;;;;2.05;1.02;;;5.00;99.90;;;;;;5117113;27;20101;-81
2022/01/17 05:52:15;;;;;;;0.50;0.50;;;5.00;99.90;;;;;;5100246;27;20482;-80
2022/01/17 05:54:41;;;;;;;0.60;0.60;;;5.00;99.90;;;;;;5135270;27;20464;-82
2022/01/17 05:57:07;;;;;;;0.50;0.50;;;5.10;99.90;;;;;;5083184;27;20058;-82
2022/01/17 05:59:32;;;;;;;0.50;0.50;;;5.10;99.90;;;;;;5135025;27;20047;-81
2022/01/17 06:01:58;;;;;;;0.60;0.60;;;5.10;99.90;;;;;;5116884;27;20046;-80
2022/01/17 06:04:24;;;;;;;1.58;1.33;;;5.10;99.90;;;;;;5100289;27;20054;-80
2022/01/17 06:06:49;;;;;;;0.70;0.70;;;5.20;99.90;;;;;;5116806;27;20049;-82
2022/01/17 06:09:16;;;;;;;0.60;0.60;;;5.20;99.90;;;;;;5116779;28;20095;-80
2022/01/17 06:11:42;;;;;;;0.60;0.60;;;5.30;99.90;;;;;;5116558;27;20043;-81
2022/01/17 06:14:09;;;;;;;0.60;0.60;;;5.30;99.90;;;;;;5116896;28;20061;-80
2022/01/17 06:16:36;;;;;;;0.60;0.60;;;5.30;99.90;;;;;;5134735;27;20545;-82
2022/01/17 06:19:03;;;;;;;0.50;0.50;;;5.30;99.90;;;;;;5134864;28;20083;-82
2022/01/17 06:21:29;;;;;;;;;;;5.30;99.90;;;;;;5135625;28;20046;-82
2022/01/17 06:23:54;;;;;;;0.60;0.60;;;5.20;99.90;;;;;;5116638;28;19926;-80
2022/01/17 06:26:20;;;;;;;0.50;0.50;;;5.40;99.90;;;;;;5116547;28;20065;-81
2022/01/17 06:28:46;;;;;;;0.50;0.50;;;5.60;99.90;;;;;;5116673;28;20043;-83
2022/01/17 06:31:12;;;;;;;0.50;0.50;;;5.50;99.90;;;;;;5134620;28;20292;-79
2022/01/17 06:33:38;;;;;;;0.60;0.60;;;5.50;99.90;;;;;;5116772;28;20475;-83
2022/01/17 06:36:04;;;;;;;0.70;0.70;;;5.50;99.90;;;;;;5116988;28;20035;-84
2022/01/17 06:38:29;;;;;;;0.50;0.50;;;5.50;99.90;;;;;;5116586;28;20051;-83
2022/01/17 06:40:55;;;;;;;0.90;0.90;;;6.30;99.90;;;;;;5116574;28;20043;-81
2022/01/17 06:43:22;;;;;;;0.50;0.50;;;5.60;99.90;;;;;;5134449;28;20051;-79
2022/01/17 06:45:48;;;;;;;0.50;0.50;;;5.60;99.90;;;;;;5119591;27;20042;-82
2022/01/17 06:48:13;;;;;;;0.50;0.50;;;5.60;99.90;;;;;;5103472;27;20063;-82
2022/01/17 06:50:39;;;;;;;0.50;0.50;;;5.60;99.90;;;;;;5120515;27;20031;-79
2022/01/17 06:53:05;;;;;;;1.20;1.10;;;5.60;99.90;;;;;;5138979;27;20035;-81
2022/01/17 06:55:30;;;;;;;0.60;0.60;;;5.70;99.90;;;;;;5120450;27;20051;-78
2022/01/17 06:57:56;;;;;;;0.50;0.50;;;5.70;99.90;;;;;;5138535;27;20054;-80
2022/01/17 07:00:21;;;;;;;0.60;0.60;;;5.70;99.90;;;;;;5138292;27;20035;-79
2022/01/17 07:02:47;;;;;;;0.52;0.52;;;5.70;99.90;;;;;;5120317;27;20047;-82
2022/01/17 07:05:13;;;;;;;0.55;0.55;;;5.70;99.90;;;;;;5103424;27;20043;-79
2022/01/17 07:07:39;;;;;;;0.60;0.60;;;6.00;99.90;;;;;;5120014;27;20043;-79
2022/01/17 07:10:06;;;;;;;0.60;0.60;;;5.80;99.90;;;;;;5119965;27;20050;-77
2022/01/17 07:12:31;;;;;;;0.60;0.60;;;5.80;99.90;;;;;;5120098;27;20124;-79
2022/01/17 07:14:57;;;;;;;0.60;0.60;;;5.80;99.90;;;;;;5119752;27;20122;-79
2022/01/17 07:17:23;;;;;;;0.60;0.60;;;5.80;99.90;;;;;;5138646;27;20043;-80
2022/01/17 07:19:48;;;;;;;0.50;0.50;;;5.80;99.90;;;;;;5138348;27;20050;-81
2022/01/17 07:22:14;;;;;;;0.60;0.60;;;5.80;99.90;;;;;;5119774;27;20062;-79
2022/01/17 07:24:39;;;;;;;0.57;0.57;;;5.80;99.90;;;;;;5137897;27;20498;-80
2022/01/17 07:27:05;;;;;;;0.50;0.50;;;5.80;99.90;;;;;;5119685;27;20050;-81
2022/01/17 07:29:31;;;;;;;3.15;2.90;;;5.80;99.90;;;;;;5102422;27;20126;-78
2022/01/17 07:31:57;;;;;;;1.27;0.95;;;5.80;99.90;;;;;;5119340;27;20047;-79
2022/01/17 07:34:23;;;;;;;0.75;0.75;;;5.80;99.90;;;;;;5102128;27;20079;-78
2022/01/17 07:36:49;;;;;;;0.60;0.60;;;5.80;99.90;;;;;;5138289;27;20130;-80
2022/01/17 07:39:15;;;;;;;0.50;0.50;;;5.80;99.90;;;;;;5119720;27;20074;-78
2022/01/17 07:41:41;;;;;;;0.50;0.50;;;5.80;99.90;;;;;;5137651;27;20054;-80
2022/01/17 07:44:17;;;;;;;0.50;0.50;;;6.00;99.90;;;;;;5102445;27;20039;-80
2022/01/17 07:46:58;;;;;;;0.60;0.60;;;5.80;99.90;;;;;;5138007;27;20086;-81
2022/01/17 07:49:24;;;;;;;0.50;0.50;;;5.80;99.90;;;;;;5137288;27;20050;-82
2022/01/17 07:51:58;;;;;;;0.60;0.60;;;5.80;99.90;;;;;;5137344;27;20047;-80
2022/01/17 07:54:25;;;;;;;1.05;1.05;;;5.80;99.90;;;;;;5102038;27;20039;-84
2022/01/17 07:56:50;;;;;;;0.50;0.50;;;6.00;99.90;;;;;;5136159;27;20044;-79
2022/01/17 07:59:16;;;;;;;0.50;0.50;;;5.90;99.90;;;;;;5119400;27;20066;-81
2022/01/17 08:01:42;;;;;;;0.60;0.60;;;5.90;99.90;;;;;;5118921;27;20365;-79
2022/01/17 08:04:09;;;;;;;2.35;2.15;;;5.90;99.90;;;;;;5137525;27;20046;-79
2022/01/17 08:06:38;;;;;;;0.50;0.50;;;5.90;99.90;;;;;;5137114;27;20047;-79
2022/01/17 08:09:06;;;;;;;0.50;0.50;;;6.00;99.90;;;;;;5086014;27;20060;-80
2022/01/17 08:11:32;;;;;;;0.50;0.50;;;6.00;99.90;;;;;;5136962;27;20043;-81
2022/01/17 08:13:58;;;;;;;0.60;0.60;;;6.00;99.90;;;;;;5118776;27;20066;-83
2022/01/17 08:16:24;;;;;;;0.50;0.50;;;6.00;99.90;;;;;;5137277;27;20397;-81
2022/01/17 08:18:52;;;;;;;0.50;0.50;;;6.10;99.90;;;;;;5118908;27;20039;-79
2022/01/17 08:21:18;;;;;;;0.50;0.50;;;6.10;99.90;;;;;;5118957;27;20043;-80
2022/01/17 08:23:43;;;;;;;0.50;0.50;;;6.10;99.90;;;;;;5136829;27;20039;-79
2022/01/17 08:26:09;;;;;;;0.57;0.57;;;6.10;99.90;;;;;;5118358;27;20441;-79
2022/01/17 08:28:34;;;;;;;0.50;0.50;;;6.10;99.90;;;;;;5136597;27;20074;-79
2022/01/17 08:31:00;;;;;;;0.50;0.50;;;6.40;99.90;;;;;;5118410;27;20039;-79
2022/01/17 08:33:26;;;;;;;0.50;0.50;;;6.10;99.90;;;;;;5136566;27;20102;-80
2022/01/17 08:35:51;;;;;;;0.60;0.60;;;6.20;99.90;;;;;;5118171;27;20043;-79
2022/01/17 08:38:17;;;;;;;0.60;0.60;;;6.20;99.90;;;;;;5118288;27;20039;-77
2022/01/17 08:40:42;;;;;;;0.60;0.60;;;6.20;99.90;;;;;;5118187;27;20043;-76
2022/01/17 08:43:08;;;;;;;0.50;0.50;;;6.20;99.90;;;;;;5136432;27;20089;-77
2022/01/17 08:45:34;;;;;;;0.50;0.50;;;6.20;99.90;;;;;;5118087;27;20075;-77
2022/01/17 08:48:00;;;;;;;0.50;0.50;;;6.20;99.90;;;;;;5135847;27;20402;-77
2022/01/17 08:50:27;;;;;;;0.50;0.50;;;6.20;99.90;;;;;;5136475;27;20050;-79
2022/01/17 08:52:52;;;;;;;;;;;6.20;99.90;;;;;;5118482;27;20054;-79
2022/01/17 08:55:19;;;;;;;0.63;0.63;;;6.20;99.90;;;;;;5117787;27;19926;-79
2022/01/17 08:57:44;;;;;;;0.60;0.60;;;6.30;99.90;;;;;;5118540;27;20047;-80
2022/01/17 09:00:14;;;;;;;0.50;0.50;;;6.30;99.90;;;;;;5117851;27;20035;-78
2022/01/17 09:02:40;;;;;;;0.60;0.60;;;6.30;99.90;;;;;;5118513;27;20079;-78
2022/01/17 09:05:07;;;;;;;0.60;0.60;;;6.30;99.90;;;;;;5136040;27;20085;-76
2022/01/17 09:07:32;;;;;;;0.82;0.82;;;6.30;99.90;;;;;;5117822;27;20047;-77
2022/01/17 09:09:58;;;;;;;0.60;0.60;;;6.30;99.90;;;;;;5117734;27;20039;-78
2022/01/17 09:12:24;;;;;;;1.02;1.02;;;6.30;99.90;;;;;;5117693;27;20441;-76
2022/01/17 09:14:49;;;;;;;0.60;0.60;;;6.30;99.90;;;;;;5135642;27;20042;-77
2022/01/17 09:17:15;;;;;;;0.50;0.50;;;6.40;99.90;;;;;;5135710;27;20054;-77
2022/01/17 09:19:42;;;;;;;0.50;0.50;;;6.40;99.90;;;;;;5117264;27;20495;-78
2022/01/17 09:22:09;;;;;;;;;;;6.40;99.90;;;;;;5136031;27;20050;-77
2022/01/17 09:24:36;;;;;;;0.50;0.50;;;6.50;99.90;;;;;;5100502;27;20009;-79
2022/01/17 09:27:03;;;;;;;0.50;0.50;;;6.60;99.90;;;;;;5133938;27;20074;-78
2022/01/17 09:29:29;;;;;;;1.15;1.10;;;6.50;99.90;;;;;;5115012;27;20491;-79
2022/01/17 09:31:55;;;;;;;0.50;0.50;;;6.50;99.90;;;;;;5117070;27;20042;-79
2022/01/17 09:34:21;;;;;;;0.68;0.68;;;6.50;99.90;;;;;;5115844;27;20297;-80
2022/01/17 09:36:47;;;;;;;0.50;0.50;;;6.60;99.90;;;;;;5134800;27;20043;-79
2022/01/17 09:39:13;;;;;;;0.50;0.50;;;6.60;99.90;;;;;;5135002;27;20127;-79
2022/01/17 09:41:39;;;;;;;0.50;0.50;;;6.60;99.90;;;;;;5099867;27;20074;-79
2022/01/17 09:44:05;;;;;;;0.50;0.50;;;6.70;99.90;;;;;;5116942;27;20575;-78
2022/01/17 09:46:37;;;;;;;0.70;0.60;;;6.70;99.90;;;;;;5134937;27;20360;-77
2022/01/17 09:49:14;;;;;;;0.63;0.63;;;6.70;99.90;;;;;;5099327;27;20285;-79
2022/01/17 09:54:25;;;;;;;0.50;0.50;;;6.80;99.90;;;;;;5116411;27;20131;-77
2022/01/17 09:56:55;;;;;;;0.50;0.50;;;6.90;99.90;;;;;;5082183;27;20051;-78
2022/01/17 09:59:21;;;;;;;1.48;1.38;;;6.90;99.90;;;;;;5116206;27;20472;-79
2022/01/17 10:01:47;;;;;;;0.75;0.75;;;7.00;99.90;;;;;;5116189;27;20081;-78
2022/01/17 10:04:16;;;;;;;2.83;2.05;;;7.00;99.90;;;;;;5116198;27;20057;-78
2022/01/17 10:06:50;;;;;;;0.50;0.50;;;7.10;99.90;;;;;;5115965;27;20176;-79
2022/01/17 10:09:21;;;;;;;0.60;0.60;;;7.30;99.90;;;;;;5134410;27;20047;-79
2022/01/17 10:12:05;;;;;;;1.38;1.27;;;7.20;99.90;;;;;;5134173;27;20035;-79
2022/01/17 10:14:36;;;;;;;0.50;0.50;;;7.30;99.90;;;;;;5099063;28;20046;-79
2022/01/17 10:17:13;;;;;;;1.88;1.67;;;7.30;99.90;;;;;;5115353;28;20050;-80
2022/01/17 10:19:40;;;;;;;2.22;2.03;;;7.40;99.90;;;;;;5133589;27;20055;-81
2022/01/17 10:22:12;;;;;;;4.25;3.13;;;7.40;99.90;;;;;;5134689;28;20091;-79
2022/01/17 10:25:04;;;;;;;0.50;0.50;;;7.50;99.90;;;;;;5134199;28;20039;-79
2022/01/17 10:27:44;;;;;;;0.50;0.50;;;7.50;99.90;;;;;;5115220;28;20046;-80
2022/01/17 10:30:38;;;;;;;4.88;3.05;;;7.60;99.90;;;;;;5116096;28;20127;-81
2022/01/17 10:35:57;;;;;;;0.50;0.50;;;7.70;99.90;;;;;;5074293;28;20047;-79
2022/01/17 10:38:24;;;;;;;0.50;0.50;;;7.80;99.90;;;;;;5134207;28;20051;-80
2022/01/17 10:40:50;;;;;;;0.50;0.50;;;7.90;99.90;;;;;;5133848;28;20168;-80
2022/01/17 10:43:25;;;;;;;0.50;0.50;;;8.00;99.90;;;;;;5099295;28;20134;-81
2022/01/17 10:45:53;;;;;;;0.50;0.50;;;8.10;99.90;;;;;;5134027;28;20046;-80
2022/01/17 10:48:19;;;;;;;0.47;0.47;;;8.20;99.90;;;;;;5134173;27;20398;-79
2022/01/17 10:50:50;;;;;;;0.50;0.50;;;8.30;99.90;;;;;;5134129;28;20043;-79
2022/01/17 10:53:17;;;;;;;0.75;0.75;;;8.40;99.90;;;;;;5133852;28;20402;-79
2022/01/17 10:55:48;;;;;;;0.50;0.50;;;8.50;99.90;;;;;;5115709;28;20043;-80
2022/01/17 10:58:20;;;;;;;3.80;2.47;;;8.60;99.90;;;;;;5134273;28;20079;-80
2022/01/17 11:00:49;;;;;;;0.50;0.50;;;8.70;99.90;;;;;;5098449;28;20043;-79
2022/01/17 11:03:22;;;;;;;0.50;0.50;;;8.80;99.90;;;;;;5115772;28;20053;-77
2022/01/17 11:05:49;;;;;;;1.65;0.85;;;8.90;99.90;;;;;;5133958;28;20039;-80
2022/01/17 11:08:20;;;;;;;0.40;0.40;;;8.90;99.90;;;;;;5133946;28;20035;-79
2022/01/17 11:10:50;;;;;;;6.18;2.97;;;9.00;99.90;;;;;;5115433;28;20031;-78
2022/01/17 11:13:18;;;;;;;0.50;0.50;;;9.00;99.90;;;;;;5115018;28;20112;-79
2022/01/17 11:15:46;;;;;;;1.70;1.60;;;9.10;99.90;;;;;;5115862;28;20047;-79
2022/01/17 11:18:18;;;;;;;3.17;2.88;;;9.10;99.90;;;;;;5115119;28;20058;-77
2022/01/17 11:20:45;;;;;;;0.50;0.50;;;9.20;99.90;;;;;;5133679;28;20091;-80
2022/01/17 11:23:10;;;;;;;0.50;0.50;;;9.10;99.90;;;;;;5114804;28;20043;-75
2022/01/17 11:25:39;;;;;;;0.40;0.40;;;9.20;99.90;;;;;;5135069;28;20086;-76
2022/01/17 11:28:06;;;;;;;0.40;0.40;;;9.20;99.90;;;;;;5115487;28;20082;-76
2022/01/17 11:30:34;;;;;;;0.40;0.40;;;9.10;99.90;;;;;;5134586;27;20475;-76
2022/01/17 11:33:04;;;;;;;0.50;0.50;;;9.10;99.90;;;;;;5102186;27;20043;-77
2022/01/17 11:35:31;;;;;;;0.50;0.50;;;9.10;99.90;;;;;;5137267;27;20517;-76
2022/01/17 11:38:01;;;;;;;0.40;0.40;;;9.10;99.90;;;;;;5136916;27;20050;-77
2022/01/17 11:40:31;;;;;;;0.40;0.40;;;9.10;99.90;;;;;;5137094;27;20418;-77
2022/01/17 11:42:59;;;;;;;1.67;1.58;;;9.20;99.90;;;;;;5137048;27;20047;-77
2022/01/17 11:45:24;;;;;;;14.00;1.48;;;9.10;99.90;;;;;;5119144;27;20475;-78
2022/01/17 11:47:50;;;;;;;0.40;0.40;;;9.10;99.90;;;;;;5115300;28;20051;-78
2022/01/17 11:50:31;;;;;;;3.05;1.08;;;9.20;99.90;;;;;;5115771;28;20051;-77
2022/01/17 11:53:00;;;;;;;0.95;0.95;;;9.20;99.90;;;;;;5115830;28;20518;-74
2022/01/17 11:55:44;;;;;;;0.50;0.50;;;9.20;99.90;;;;;;5115110;28;20420;-79
2022/01/17 11:58:24;;;;;;;0.50;0.50;;;9.30;99.90;;;;;;5116738;28;20052;-78
2022/01/17 12:01:13;;;;;;;0.52;0.52;;;9.20;99.90;;;;;;5115094;28;20101;-78
2022/01/17 12:03:42;;;;;;;0.50;0.50;;;9.30;99.90;;;;;;5116237;28;20122;-78
2022/01/17 12:06:23;;;;;;;0.55;0.55;;;9.30;99.90;;;;;;5116052;28;20479;-78
2022/01/17 12:09:25;;;;;;;1.55;1.02;;;9.30;99.90;;;;;;5116046;28;20051;-79
2022/01/17 12:12:12;;;;;;;0.47;0.47;;;9.30;99.90;;;;;;5114850;28;20051;-79
2022/01/17 12:14:52;;;;;;;0.40;0.40;;;9.40;99.90;;;;;;5104484;28;20048;-76
2022/01/17 12:17:25;;;;;;;1.45;1.40;;;9.30;99.90;;;;;;5095615;28;20084;-77
2022/01/17 12:20:22;;;;;;;0.50;0.50;;;9.30;99.90;;;;;;5094579;28;20055;-78
2022/01/17 12:22:57;;;;;;;0.40;0.40;;;9.30;99.90;;;;;;5090270;28;20120;-77
2022/01/17 12:25:24;;;;;;;3.00;2.80;;;9.30;99.90;;;;;;5095296;28;20047;-78
2022/01/17 12:27:51;;;;;;;0.50;0.50;;;9.30;99.90;;;;;;5094276;28;20403;-78
2022/01/17 12:30:17;;;;;;;1.50;1.40;;;9.30;99.90;;;;;;5094269;28;20067;-78
2022/01/17 12:32:50;;;;;;;1.13;1.13;;;9.30;99.90;;;;;;5093778;28;20044;-78
2022/01/17 12:35:19;;;;;;;0.60;0.60;;;9.40;99.90;;;;;;5094996;28;20124;-77
2022/01/17 12:37:51;;;;;;;0.50;0.50;;;9.40;99.90;;;;;;5094978;28;20174;-79
2022/01/17 12:40:23;;;;;;;0.40;0.40;;;9.40;99.90;;;;;;5095110;28;20040;-77
2022/01/17 12:43:14;;;;;;;0.50;0.50;;;9.50;99.90;;;;;;5092895;28;20051;-79
2022/01/17 12:45:44;;;;;;;4.22;0.70;;;9.50;99.90;;;;;;5094101;28;20039;-77
2022/01/17 12:48:19;;;;;;;21.13;3.30;;;9.90;99.90;;;;;;5118050;27;20533;-77
2022/01/17 12:50:46;;;;;;;4.68;0.70;;;9.50;99.90;;;;;;5135657;27;20058;-76
2022/01/17 12:53:16;;;;;;;1.85;0.98;;;9.50;99.90;;;;;;5135633;27;20049;-80
2022/01/17 12:55:47;;;;;;;0.40;0.40;;;9.40;99.90;;;;;;5135600;27;20050;-76
2022/01/17 12:58:22;;;;;;;0.55;0.55;;;9.40;99.90;;;;;;5117556;27;20139;-76
2022/01/17 13:00:54;;;;;;;1.85;1.63;;;9.40;99.90;;;;;;5117069;27;20055;-76
2022/01/17 13:03:25;;;;;;;0.50;0.50;;;9.40;99.90;;;;;;5117319;27;20047;-76
2022/01/17 13:05:52;;;;;;;7.32;1.65;;;9.50;99.90;;;;;;5117219;27;20039;-81
2022/01/17 13:08:19;;;;;;;0.50;0.50;;;9.40;99.90;;;;;;5135184;27;20036;-78
2022/01/17 13:10:44;;;;;;;0.50;0.50;;;9.50;99.90;;;;;;5135473;27;20043;-76
2022/01/17 13:13:16;;;;;;;0.75;0.75;;;9.40;99.90;;;;;;5133393;27;20776;-76
2022/01/17 13:15:56;;;;;;;4.85;1.40;;;10.00;99.90;;;;;;5135363;27;20039;-77
2022/01/17 13:18:22;;;;;;;1.02;1.00;;;9.40;99.90;;;;;;5133965;27;20248;-75
2022/01/17 13:20:48;;;;;;;0.50;0.50;;;9.40;99.90;;;;;;5134922;27;20076;-76
2022/01/17 13:23:15;;;;;;;2.58;2.38;;;9.40;99.90;;;;;;5134549;27;20047;-77
2022/01/17 13:25:40;;;;;;;0.47;0.47;;;9.40;99.90;;;;;;5099294;27;20083;-77
2022/01/17 13:28:06;;;;;;;1.87;0.93;;;9.40;99.90;;;;;;5135332;27;20414;-77
2022/01/17 13:30:34;;;;;;;5.00;0.93;;;9.30;99.90;;;;;;5134778;27;20604;-77
2022/01/17 13:33:05;;;;;;;0.40;0.40;;;9.20;99.90;;;;;;5133730;27;20053;-77